• Join FlightAware (Why Join?)
  • Login
  • US Flag 
01:21PM EDT


 

Airport Tracker/Info


-or-


 

Live Flight TrackerFlight Track Log ✈ WEW680 ✈ 04-May-2012 ✈ CYKC - CYVC

Flight Track Log - Related Links

Times and Time Zones

All times are in EDT time to prevent confusion due to time zone crossing. See the WEW680 flight status page for this flight to view local times or setup timezone preferences in your user account.

Time Position Orientation Groundspeed Altitude Reporting Facility
EDT Latitude Longitude Course Direction KTS MPH feet Rate Location/Type
12:23PM 58.0500 -103.8167 199° South 180 207 14,000  Level Winnipeg Center
12:24PM 58.0000 -103.8500 190° South 180 207 15,600 1,500 Climbing Winnipeg Center
12:25PM 57.9500 -103.8667 190° South 190 219 17,100 1,260 Climbing Winnipeg Center
12:26PM 57.9000 -103.8833 200° South 190 219 18,200 1,140 Climbing Winnipeg Center
12:27PM 57.8500 -103.9167 202° Southwest 200 230 19,400 900 Climbing Winnipeg Center
12:28PM 57.7833 -103.9667 188° South 210 242 20,000 300 Climbing Winnipeg Center
12:29PM 57.7167 -103.9833 202° Southwest 230 265 20,100  Climbing Winnipeg Center
12:30PM 57.6500 -104.0333 188° South 250 288 20,000 -60 Descending Winnipeg Center
12:31PM 57.5833 -104.0500 202° Southwest 250 288 20,000  Level Winnipeg Center
12:32PM 57.5167 -104.1000 208° Southwest 250 288 20,100  Climbing Winnipeg Center
12:33PM 57.4667 -104.1500 188° South 260 299 20,100  Level Winnipeg Center
12:34PM 57.4000 -104.1667 188° South 250 288 20,100  Level Winnipeg Center
12:35PM 57.3333 -104.1833 198° South 250 288 20,200  Climbing Winnipeg Center
12:36PM 57.2500 -104.2333 188° South 250 288 20,100 -60 Descending Winnipeg Center
12:37PM 57.1833 -104.2500 208° Southwest 250 288 20,100  Level Winnipeg Center
12:38PM 57.1333 -104.3000 188° South 250 288 20,200  Climbing Winnipeg Center
12:39PM 57.0667 -104.3167 202° Southwest 250 288 20,100 -60 Descending Winnipeg Center
12:40PM 57.0000 -104.3667 202° Southwest 250 288 20,100  Level Winnipeg Center
12:41PM 56.9333 -104.4167 186° South 240 276 20,100  Level Winnipeg Center
12:42PM 56.8500 -104.4333 188° South 240 276 20,100  Level Winnipeg Center
12:43PM 56.7833 -104.4500 209° Southwest 240 276 20,100  Level Winnipeg Center
12:44PM 56.7333 -104.5000 202° Southwest 240 276 20,100 -60 Level Winnipeg Center
12:45PM 56.6667 -104.5500 188° South 250 288 20,000  Descending Winnipeg Center
12:46PM 56.6000 -104.5667 209° Southwest 250 288 20,100  Climbing Winnipeg Center
12:47PM 56.5500 -104.6167 198° South 250 288 20,100  Level Winnipeg Center
12:48PM 56.4667 -104.6667 188° South 250 288 20,100 -60 Level Winnipeg Center
12:49PM 56.4000 -104.6833 188° South 250 288 20,000  Descending Winnipeg Center
12:50PM 56.3333 -104.7000 203° Southwest 250 288 20,200  Climbing Winnipeg Center
12:51PM 56.2667 -104.7500 188° South 250 288 20,100 -60 Descending Winnipeg Center
12:52PM 56.2000 -104.7667 209° Southwest 250 288 20,100 -60 Level Winnipeg Center
12:53PM 56.1500 -104.8167 196° South 250 288 20,000 -900 Descending Winnipeg Center
12:54PM 56.0833 -104.8500 186° South 260 299 18,400 -1,500 Descending Winnipeg Center
12:55PM 56.0000 -104.8667 199° South 260 299 17,000 -1,500 Descending Winnipeg Center
12:56PM 55.9167 -104.9167 191° South 250 288 15,500 -1,380 Descending Winnipeg Center
12:57PM 55.8667 -104.9333 203° Southwest 240 276 14,300 -1,140 Descending Winnipeg Center
12:58PM 55.8000 -104.9833 188° South 240 276 13,300 -1,140 Descending Winnipeg Center
12:59PM 55.7333 -105.0000 191° South 240 276 12,100 -1,140 Descending Winnipeg Center
01:00PM 55.6833 -105.0167 203° Southwest 240 276 11,100 -1,020 Descending Winnipeg Center
01:01PM 55.6167 -105.0667 193° South 240 276 10,100 -900 Descending Winnipeg Center
01:02PM 55.5333 -105.1000 188° South 240 276 9,300 -900 Descending Winnipeg Center
01:03PM 55.4667 -105.1167 201° Southwest 240 276 8,300 -1,020 Descending Winnipeg Center
01:04PM 55.4167 -105.1500 196° South 240 276 7,300 -1,080 Descending Winnipeg Center
01:05PM 55.3500 -105.1833 188° South 240 276 6,200 -1,200 Descending Winnipeg Center
01:06PM 55.2833 -105.2000 191° South 240 276 4,900 -1,500 Descending Winnipeg Center
01:07PM 55.2333 -105.2167 191° South 220 253 3,300 -900 Descending Winnipeg Center
01:08PM 55.1833 -105.2333 180° South 190 219 3,100 -360 Descending Winnipeg Center
01:09PM 55.1333 -105.2333 210° Southwest 160 184 2,600 -480 Descending Winnipeg Center
01:10PM 55.1167 -105.2500 270° West 140 161 2,200 -600 Descending Winnipeg Center
01:11PM 55.1167 -105.2833 270° West 130 150 1,400 -840 Descending Winnipeg Center